Olympic National Park, WA

5:26 AM PDT on July 23, 2016 (GMT -0700)
Lake Dawn | | Change Station

Elev 1864 ft 48.04 °N, 123.43 °W | Updated 11 minutes ago

Mostly Cloudy
Mostly Cloudy
52.7 °F
Feels Like 52.7 °F
N
0.7
Wind Variable Wind from NW
Gusts 3.1 mph

Today
High -- | Low -- °F
--% Chance of Precip.
Yesterday
High -- | Low -- °F
Precip. -- in
Pressure 30.26 in
Visibility 10.0 miles
Clouds Scattered Clouds 3100 ft
Mostly Cloudy 4300 ft
Dew Point 51 °F
Humidity 95%
Rainfall 0.00 in
Snow Depth Not available.
5:39 AM 9:00 PM
Waning Gibbous, 85% visible
METAR KCLM 231153Z AUTO 25007KT 10SM SCT031 BKN043 15/10 A3026 RMK AO2 SLP246 T01500100 10150 20133 57007
Pressure 30.26 in
Visibility 10.0 miles
Clouds Scattered Clouds 3100 ft
Mostly Cloudy 4300 ft
Dew Point 51 °F
Humidity 95%
Rainfall 0.00 in
Snow Depth Not available.
5:39 AM 9:00 PM
Waning Gibbous, 85% visible
METAR KCLM 231153Z AUTO 25007KT 10SM SCT031 BKN043 15/10 A3026 RMK AO2 SLP246 T01500100 10150 20133 57007

10-Day Weather Forecast

Almanac

Astronomy

Jul. 23, 2016 Rise Set
Actual Time
Civil Twilight
Nautical Twilight
Astronomical Twilight
Moon
Length of Visible Light
Length of Day
Tomorrow will be .
, % of the Moon is Illuminated

Today's Extremes

State Highs State Lows

Community

WunderPhotos

Upload Photos

1,926,813 photos uploaded!

WunderBlog® & News

Nearby

Air Quality

  Air Quality AQ Index Pollutant
Not available.

Snow Depth

Station Depth Elevation

Earthquake Activity

City Distance Mag. Time & Date
Minimum magnitude displayed is 2.5.

Coastal Water Temperatures

Place Temperature

Stations

Nearby Weather Stations

Station Location Temp. Windchill Dew Point Humidity Wind Precip. Elev Updated Type
                   

Watches & Warnings

There are currently no watches in effect.